Weather at Isle-A-Port STOLport

Public forecast

Using degrees Fahrenheit for public forecast. Weather courtesy of forecast.io.

Closest aviation weather report (METAR) to Isle-A-Port STOLport

Closest report is West Memphis Municipal Airport, 6.4 nm (11.8 km) WNW. Retrieved 2020/09/19 01:53 UTC (16 minutes ago):

KAWM 190153Z AUTO 03008KT 10SM CLR 19/13 A3015 RMK AO2 SLP207 T01940133

Closest aviation forecast (TAF) to Isle-A-Port STOLport

Closest forecast is Memphis International Airport, 7.5 nm (13.8 km) ESE. Retrieved 2020-09-19 00:33 UTC (2 hours ago):

TAF KMEM 182330Z 1900/2006 03014KT P6SM FEW040 FEW250 FM190500 04012KT P6SM FEW250 FM191800 03010G15KT P6SM FEW250 FM192300 04012KT P6SM FEW250